sensor_id;sensor_type;location;lat;lon;timestamp;P1;durP1;ratioP1;P2;durP2;ratioP2
3633;SDS011;1833;42.718;23.270;2023-03-21T00:02:24;66.00;;;46.43;;
3633;SDS011;1833;42.718;23.270;2023-03-21T00:04:51;90.87;;;59.00;;
3633;SDS011;1833;42.718;23.270;2023-03-21T00:07:20;66.03;;;47.73;;
3633;SDS011;1833;42.718;23.270;2023-03-21T00:09:48;54.57;;;42.60;;
3633;SDS011;1833;42.718;23.270;2023-03-21T00:12:15;50.83;;;39.40;;
3633;SDS011;1833;42.718;23.270;2023-03-21T00:14:45;54.40;;;39.13;;
3633;SDS011;1833;42.718;23.270;2023-03-21T00:17:12;42.87;;;37.03;;
3633;SDS011;1833;42.718;23.270;2023-03-21T00:19:40;55.20;;;37.97;;
3633;SDS011;1833;42.718;23.270;2023-03-21T00:22:09;44.30;;;37.30;;
3633;SDS011;1833;42.718;23.270;2023-03-21T00:24:37;43.17;;;35.67;;
3633;SDS011;1833;42.718;23.270;2023-03-21T00:27:05;46.70;;;36.23;;
3633;SDS011;1833;42.718;23.270;2023-03-21T00:29:33;43.67;;;35.90;;
3633;SDS011;1833;42.718;23.270;2023-03-21T00:32:00;48.17;;;36.63;;
3633;SDS011;1833;42.718;23.270;2023-03-21T00:34:27;47.07;;;35.37;;
3633;SDS011;1833;42.718;23.270;2023-03-21T00:36:57;45.13;;;36.87;;
3633;SDS011;1833;42.718;23.270;2023-03-21T00:39:25;45.20;;;36.50;;
3633;SDS011;1833;42.718;23.270;2023-03-21T00:41:54;47.77;;;36.77;;
3633;SDS011;1833;42.718;23.270;2023-03-21T00:44:22;47.33;;;36.20;;
3633;SDS011;1833;42.718;23.270;2023-03-21T00:46:50;41.73;;;35.07;;
3633;SDS011;1833;42.718;23.270;2023-03-21T00:49:18;40.10;;;34.33;;
3633;SDS011;1833;42.718;23.270;2023-03-21T00:51:46;41.00;;;35.13;;
3633;SDS011;1833;42.718;23.270;2023-03-21T00:54:16;49.17;;;36.33;;
3633;SDS011;1833;42.718;23.270;2023-03-21T00:56:43;43.93;;;35.50;;
3633;SDS011;1833;42.718;23.270;2023-03-21T00:59:12;45.33;;;35.10;;
3633;SDS011;1833;42.718;23.270;2023-03-21T01:01:40;45.43;;;35.27;;
3633;SDS011;1833;42.718;23.270;2023-03-21T01:04:10;42.23;;;34.27;;
3633;SDS011;1833;42.718;23.270;2023-03-21T01:06:39;41.33;;;33.70;;
3633;SDS011;1833;42.718;23.270;2023-03-21T01:09:08;41.83;;;35.40;;
3633;SDS011;1833;42.718;23.270;2023-03-21T01:11:48;38.27;;;34.10;;
3633;SDS011;1833;42.718;23.270;2023-03-21T01:14:18;48.90;;;36.00;;
3633;SDS011;1833;42.718;23.270;2023-03-21T01:16:46;41.70;;;34.57;;
3633;SDS011;1833;42.718;23.270;2023-03-21T01:19:14;50.33;;;34.60;;
3633;SDS011;1833;42.718;23.270;2023-03-21T01:21:43;41.70;;;35.03;;
3633;SDS011;1833;42.718;23.270;2023-03-21T01:24:10;36.77;;;32.80;;
3633;SDS011;1833;42.718;23.270;2023-03-21T01:26:37;37.40;;;33.23;;
3633;SDS011;1833;42.718;23.270;2023-03-21T01:29:05;42.60;;;33.20;;
3633;SDS011;1833;42.718;23.270;2023-03-21T01:31:35;42.03;;;34.33;;
3633;SDS011;1833;42.718;23.270;2023-03-21T01:34:03;38.00;;;33.90;;
3633;SDS011;1833;42.718;23.270;2023-03-21T01:36:30;37.10;;;33.07;;
3633;SDS011;1833;42.718;23.270;2023-03-21T01:38:58;38.47;;;33.90;;
3633;SDS011;1833;42.718;23.270;2023-03-21T01:41:25;39.30;;;33.60;;
3633;SDS011;1833;42.718;23.270;2023-03-21T01:43:53;38.50;;;32.73;;
3633;SDS011;1833;42.718;23.270;2023-03-21T01:46:30;42.07;;;33.10;;
3633;SDS011;1833;42.718;23.270;2023-03-21T01:49:00;40.53;;;33.60;;
3633;SDS011;1833;42.718;23.270;2023-03-21T01:51:28;39.17;;;35.00;;
3633;SDS011;1833;42.718;23.270;2023-03-21T01:53:56;38.70;;;32.53;;
3633;SDS011;1833;42.718;23.270;2023-03-21T01:56:25;44.63;;;34.50;;
3633;SDS011;1833;42.718;23.270;2023-03-21T01:58:55;36.50;;;32.60;;
3633;SDS011;1833;42.718;23.270;2023-03-21T02:01:27;36.47;;;32.63;;
3633;SDS011;1833;42.718;23.270;2023-03-21T02:03:56;40.10;;;33.97;;
3633;SDS011;1833;42.718;23.270;2023-03-21T02:06:33;35.97;;;32.20;;
3633;SDS011;1833;42.718;23.270;2023-03-21T02:09:03;41.60;;;33.27;;
3633;SDS011;1833;42.718;23.270;2023-03-21T02:11:33;36.37;;;32.60;;
3633;SDS011;1833;42.718;23.270;2023-03-21T02:14:00;41.70;;;34.00;;
3633;SDS011;1833;42.718;23.270;2023-03-21T02:16:32;40.27;;;33.93;;
3633;SDS011;1833;42.718;23.270;2023-03-21T02:19:07;42.40;;;32.70;;
3633;SDS011;1833;42.718;23.270;2023-03-21T02:21:46;36.53;;;32.83;;
3633;SDS011;1833;42.718;23.270;2023-03-21T02:24:27;36.13;;;32.40;;
3633;SDS011;1833;42.718;23.270;2023-03-21T02:27:07;36.00;;;32.40;;
3633;SDS011;1833;42.718;23.270;2023-03-21T02:29:54;36.40;;;32.50;;
3633;SDS011;1833;42.718;23.270;2023-03-21T02:32:30;36.70;;;33.07;;
3633;SDS011;1833;42.718;23.270;2023-03-21T02:35:03;36.20;;;32.40;;
3633;SDS011;1833;42.718;23.270;2023-03-21T02:37:35;35.97;;;32.27;;
3633;SDS011;1833;42.718;23.270;2023-03-21T02:40:07;35.90;;;32.37;;
3633;SDS011;1833;42.718;23.270;2023-03-21T02:42:37;37.47;;;32.23;;
3633;SDS011;1833;42.718;23.270;2023-03-21T02:45:10;43.33;;;32.93;;
3633;SDS011;1833;42.718;23.270;2023-03-21T02:47:41;46.53;;;31.90;;
3633;SDS011;1833;42.718;23.270;2023-03-21T02:50:10;37.63;;;32.93;;
3633;SDS011;1833;42.718;23.270;2023-03-21T02:52:40;39.03;;;34.83;;
3633;SDS011;1833;42.718;23.270;2023-03-21T02:55:09;36.07;;;32.53;;
3633;SDS011;1833;42.718;23.270;2023-03-21T02:57:38;35.20;;;31.80;;
3633;SDS011;1833;42.718;23.270;2023-03-21T03:00:08;35.63;;;32.03;;
3633;SDS011;1833;42.718;23.270;2023-03-21T03:02:39;37.47;;;32.67;;
3633;SDS011;1833;42.718;23.270;2023-03-21T03:05:13;34.87;;;31.20;;
3633;SDS011;1833;42.718;23.270;2023-03-21T03:07:43;37.30;;;31.37;;
3633;SDS011;1833;42.718;23.270;2023-03-21T03:10:20;36.17;;;31.30;;
3633;SDS011;1833;42.718;23.270;2023-03-21T03:12:51;37.27;;;33.37;;
3633;SDS011;1833;42.718;23.270;2023-03-21T03:15:23;37.10;;;33.00;;
3633;SDS011;1833;42.718;23.270;2023-03-21T03:17:59;35.13;;;31.43;;
3633;SDS011;1833;42.718;23.270;2023-03-21T03:20:29;35.77;;;30.90;;
3633;SDS011;1833;42.718;23.270;2023-03-21T03:23:04;34.10;;;30.70;;
3633;SDS011;1833;42.718;23.270;2023-03-21T03:25:35;33.93;;;30.40;;
3633;SDS011;1833;42.718;23.270;2023-03-21T03:28:03;39.73;;;32.77;;
3633;SDS011;1833;42.718;23.270;2023-03-21T03:30:31;38.13;;;32.80;;
3633;SDS011;1833;42.718;23.270;2023-03-21T03:33:01;37.33;;;33.03;;
3633;SDS011;1833;42.718;23.270;2023-03-21T03:35:31;35.00;;;31.57;;
3633;SDS011;1833;42.718;23.270;2023-03-21T03:37:59;39.47;;;33.33;;
3633;SDS011;1833;42.718;23.270;2023-03-21T03:40:30;36.50;;;32.80;;
3633;SDS011;1833;42.718;23.270;2023-03-21T03:42:59;38.87;;;32.27;;
3633;SDS011;1833;42.718;23.270;2023-03-21T03:45:30;35.37;;;31.70;;
3633;SDS011;1833;42.718;23.270;2023-03-21T03:48:01;42.10;;;33.03;;
3633;SDS011;1833;42.718;23.270;2023-03-21T03:50:31;37.40;;;33.60;;
3633;SDS011;1833;42.718;23.270;2023-03-21T03:53:00;43.73;;;33.33;;
3633;SDS011;1833;42.718;23.270;2023-03-21T03:55:31;34.80;;;30.83;;
3633;SDS011;1833;42.718;23.270;2023-03-21T03:57:59;34.90;;;31.03;;
3633;SDS011;1833;42.718;23.270;2023-03-21T04:00:30;35.07;;;31.33;;
3633;SDS011;1833;42.718;23.270;2023-03-21T04:02:58;35.60;;;29.60;;
3633;SDS011;1833;42.718;23.270;2023-03-21T04:05:26;38.87;;;31.33;;
3633;SDS011;1833;42.718;23.270;2023-03-21T04:07:53;35.63;;;31.80;;
3633;SDS011;1833;42.718;23.270;2023-03-21T04:10:21;32.23;;;28.93;;
3633;SDS011;1833;42.718;23.270;2023-03-21T04:12:50;36.67;;;32.40;;
3633;SDS011;1833;42.718;23.270;2023-03-21T04:15:17;34.50;;;30.93;;
3633;SDS011;1833;42.718;23.270;2023-03-21T04:17:44;32.30;;;29.20;;
3633;SDS011;1833;42.718;23.270;2023-03-21T04:20:12;35.03;;;31.33;;
3633;SDS011;1833;42.718;23.270;2023-03-21T04:22:39;36.00;;;29.23;;
3633;SDS011;1833;42.718;23.270;2023-03-21T04:25:09;46.27;;;31.20;;
3633;SDS011;1833;42.718;23.270;2023-03-21T04:27:37;33.50;;;30.00;;
3633;SDS011;1833;42.718;23.270;2023-03-21T04:30:07;33.23;;;29.80;;
3633;SDS011;1833;42.718;23.270;2023-03-21T04:32:36;32.60;;;29.50;;
3633;SDS011;1833;42.718;23.270;2023-03-21T04:35:05;34.37;;;30.97;;
3633;SDS011;1833;42.718;23.270;2023-03-21T04:37:33;32.37;;;29.10;;
3633;SDS011;1833;42.718;23.270;2023-03-21T04:40:03;33.03;;;29.20;;
3633;SDS011;1833;42.718;23.270;2023-03-21T04:42:31;36.30;;;29.73;;
3633;SDS011;1833;42.718;23.270;2023-03-21T04:44:59;33.03;;;29.67;;
3633;SDS011;1833;42.718;23.270;2023-03-21T04:47:27;35.53;;;31.77;;
3633;SDS011;1833;42.718;23.270;2023-03-21T04:49:55;38.17;;;32.20;;
3633;SDS011;1833;42.718;23.270;2023-03-21T04:52:22;35.03;;;30.40;;
3633;SDS011;1833;42.718;23.270;2023-03-21T04:54:50;35.00;;;31.60;;
3633;SDS011;1833;42.718;23.270;2023-03-21T04:57:17;33.93;;;30.40;;
3633;SDS011;1833;42.718;23.270;2023-03-21T04:59:45;32.87;;;29.80;;
3633;SDS011;1833;42.718;23.270;2023-03-21T05:02:12;38.73;;;29.27;;
3633;SDS011;1833;42.718;23.270;2023-03-21T05:04:41;34.73;;;31.30;;
3633;SDS011;1833;42.718;23.270;2023-03-21T05:07:08;41.53;;;31.27;;
3633;SDS011;1833;42.718;23.270;2023-03-21T05:09:36;39.20;;;31.83;;
3633;SDS011;1833;42.718;23.270;2023-03-21T05:12:03;45.07;;;31.60;;
3633;SDS011;1833;42.718;23.270;2023-03-21T05:14:31;35.73;;;31.90;;
3633;SDS011;1833;42.718;23.270;2023-03-21T05:16:59;45.90;;;32.80;;
3633;SDS011;1833;42.718;23.270;2023-03-21T05:19:29;40.10;;;30.63;;
3633;SDS011;1833;42.718;23.270;2023-03-21T05:22:02;47.47;;;32.47;;
3633;SDS011;1833;42.718;23.270;2023-03-21T05:24:29;38.70;;;32.63;;
3633;SDS011;1833;42.718;23.270;2023-03-21T05:26:57;60.70;;;32.23;;
3633;SDS011;1833;42.718;23.270;2023-03-21T05:29:27;33.97;;;30.37;;
3633;SDS011;1833;42.718;23.270;2023-03-21T05:31:55;41.10;;;30.90;;
3633;SDS011;1833;42.718;23.270;2023-03-21T05:34:22;57.53;;;33.80;;
3633;SDS011;1833;42.718;23.270;2023-03-21T05:36:51;38.07;;;31.50;;
3633;SDS011;1833;42.718;23.270;2023-03-21T05:39:20;48.53;;;31.70;;
3633;SDS011;1833;42.718;23.270;2023-03-21T05:41:47;63.83;;;34.93;;
3633;SDS011;1833;42.718;23.270;2023-03-21T05:44:15;40.57;;;31.87;;
3633;SDS011;1833;42.718;23.270;2023-03-21T05:46:42;49.53;;;32.53;;
3633;SDS011;1833;42.718;23.270;2023-03-21T05:49:10;36.93;;;31.07;;
3633;SDS011;1833;42.718;23.270;2023-03-21T05:51:38;36.70;;;31.63;;
3633;SDS011;1833;42.718;23.270;2023-03-21T05:54:05;38.20;;;32.50;;
3633;SDS011;1833;42.718;23.270;2023-03-21T05:56:34;41.43;;;32.70;;
3633;SDS011;1833;42.718;23.270;2023-03-21T05:59:01;46.00;;;35.70;;
3633;SDS011;1833;42.718;23.270;2023-03-21T06:01:29;43.10;;;33.43;;
3633;SDS011;1833;42.718;23.270;2023-03-21T06:03:57;49.20;;;33.60;;
3633;SDS011;1833;42.718;23.270;2023-03-21T06:06:24;44.00;;;33.03;;
3633;SDS011;1833;42.718;23.270;2023-03-21T06:08:51;44.43;;;33.80;;
3633;SDS011;1833;42.718;23.270;2023-03-21T06:11:19;44.67;;;32.47;;
3633;SDS011;1833;42.718;23.270;2023-03-21T06:13:50;39.17;;;32.73;;
3633;SDS011;1833;42.718;23.270;2023-03-21T06:16:18;53.73;;;34.60;;
3633;SDS011;1833;42.718;23.270;2023-03-21T06:18:45;42.03;;;34.20;;
3633;SDS011;1833;42.718;23.270;2023-03-21T06:21:13;65.23;;;42.60;;
3633;SDS011;1833;42.718;23.270;2023-03-21T06:23:40;57.00;;;40.10;;
3633;SDS011;1833;42.718;23.270;2023-03-21T06:26:07;82.40;;;48.20;;
3633;SDS011;1833;42.718;23.270;2023-03-21T06:28:35;83.93;;;48.20;;
3633;SDS011;1833;42.718;23.270;2023-03-21T06:31:04;87.10;;;51.30;;
3633;SDS011;1833;42.718;23.270;2023-03-21T06:33:31;96.00;;;53.23;;
3633;SDS011;1833;42.718;23.270;2023-03-21T06:35:58;95.27;;;52.50;;
3633;SDS011;1833;42.718;23.270;2023-03-21T06:38:26;93.13;;;53.07;;
3633;SDS011;1833;42.718;23.270;2023-03-21T06:40:53;108.07;;;54.63;;
3633;SDS011;1833;42.718;23.270;2023-03-21T06:43:21;118.33;;;61.70;;
3633;SDS011;1833;42.718;23.270;2023-03-21T06:45:48;82.27;;;49.17;;
3633;SDS011;1833;42.718;23.270;2023-03-21T06:48:17;82.10;;;45.73;;
3633;SDS011;1833;42.718;23.270;2023-03-21T06:50:46;57.23;;;42.93;;
3633;SDS011;1833;42.718;23.270;2023-03-21T06:53:14;49.30;;;39.80;;
3633;SDS011;1833;42.718;23.270;2023-03-21T06:55:41;48.23;;;39.70;;
3633;SDS011;1833;42.718;23.270;2023-03-21T06:58:09;46.53;;;39.70;;
3633;SDS011;1833;42.718;23.270;2023-03-21T07:00:36;50.10;;;39.50;;
3633;SDS011;1833;42.718;23.270;2023-03-21T07:03:07;53.40;;;36.97;;
3633;SDS011;1833;42.718;23.270;2023-03-21T07:05:36;63.77;;;38.43;;
3633;SDS011;1833;42.718;23.270;2023-03-21T07:08:05;60.40;;;40.17;;
3633;SDS011;1833;42.718;23.270;2023-03-21T07:10:37;48.30;;;37.67;;
3633;SDS011;1833;42.718;23.270;2023-03-21T07:13:05;51.33;;;39.37;;
3633;SDS011;1833;42.718;23.270;2023-03-21T07:15:32;52.93;;;40.97;;
3633;SDS011;1833;42.718;23.270;2023-03-21T07:18:02;54.27;;;36.20;;
3633;SDS011;1833;42.718;23.270;2023-03-21T07:20:29;42.87;;;36.17;;
3633;SDS011;1833;42.718;23.270;2023-03-21T07:22:58;50.50;;;38.97;;
3633;SDS011;1833;42.718;23.270;2023-03-21T07:25:26;49.93;;;39.90;;
3633;SDS011;1833;42.718;23.270;2023-03-21T07:27:53;52.30;;;37.57;;
3633;SDS011;1833;42.718;23.270;2023-03-21T07:30:21;47.87;;;39.30;;
3633;SDS011;1833;42.718;23.270;2023-03-21T07:32:48;43.83;;;38.07;;
3633;SDS011;1833;42.718;23.270;2023-03-21T07:35:17;40.13;;;35.97;;
3633;SDS011;1833;42.718;23.270;2023-03-21T07:37:44;41.10;;;36.60;;
3633;SDS011;1833;42.718;23.270;2023-03-21T07:40:13;44.33;;;39.47;;
3633;SDS011;1833;42.718;23.270;2023-03-21T07:42:41;115.63;;;72.90;;
3633;SDS011;1833;42.718;23.270;2023-03-21T07:45:09;56.33;;;45.00;;
3633;SDS011;1833;42.718;23.270;2023-03-21T07:47:39;49.07;;;40.40;;
3633;SDS011;1833;42.718;23.270;2023-03-21T07:50:07;41.27;;;36.77;;
3633;SDS011;1833;42.718;23.270;2023-03-21T07:52:34;40.07;;;35.83;;
3633;SDS011;1833;42.718;23.270;2023-03-21T07:55:01;48.60;;;39.70;;
3633;SDS011;1833;42.718;23.270;2023-03-21T07:57:33;43.13;;;36.30;;
3633;SDS011;1833;42.718;23.270;2023-03-21T08:00:00;40.50;;;36.20;;
3633;SDS011;1833;42.718;23.270;2023-03-21T08:02:28;41.43;;;34.33;;
3633;SDS011;1833;42.718;23.270;2023-03-21T08:04:55;44.13;;;36.60;;
3633;SDS011;1833;42.718;23.270;2023-03-21T08:07:22;40.03;;;35.83;;
3633;SDS011;1833;42.718;23.270;2023-03-21T08:09:53;40.80;;;36.03;;
3633;SDS011;1833;42.718;23.270;2023-03-21T08:12:21;51.53;;;38.80;;
3633;SDS011;1833;42.718;23.270;2023-03-21T08:14:50;42.67;;;37.50;;
3633;SDS011;1833;42.718;23.270;2023-03-21T08:17:19;102.40;;;39.13;;
3633;SDS011;1833;42.718;23.270;2023-03-21T08:19:47;45.83;;;35.37;;
3633;SDS011;1833;42.718;23.270;2023-03-21T08:22:15;41.40;;;36.87;;
3633;SDS011;1833;42.718;23.270;2023-03-21T08:24:43;45.33;;;37.33;;
3633;SDS011;1833;42.718;23.270;2023-03-21T08:27:10;42.07;;;37.80;;
3633;SDS011;1833;42.718;23.270;2023-03-21T08:29:45;42.00;;;37.50;;
3633;SDS011;1833;42.718;23.270;2023-03-21T08:32:16;41.67;;;37.40;;
3633;SDS011;1833;42.718;23.270;2023-03-21T08:34:45;40.83;;;36.53;;
3633;SDS011;1833;42.718;23.270;2023-03-21T08:37:12;49.07;;;36.10;;
3633;SDS011;1833;42.718;23.270;2023-03-21T08:39:39;43.80;;;35.90;;
3633;SDS011;1833;42.718;23.270;2023-03-21T08:42:07;48.47;;;36.17;;
3633;SDS011;1833;42.718;23.270;2023-03-21T08:44:35;40.87;;;36.50;;
3633;SDS011;1833;42.718;23.270;2023-03-21T08:47:03;39.63;;;35.30;;
3633;SDS011;1833;42.718;23.270;2023-03-21T08:49:32;84.63;;;60.73;;
3633;SDS011;1833;42.718;23.270;2023-03-21T08:52:01;38.73;;;34.73;;
3633;SDS011;1833;42.718;23.270;2023-03-21T08:54:28;38.97;;;34.93;;
3633;SDS011;1833;42.718;23.270;2023-03-21T08:56:56;45.80;;;34.40;;
3633;SDS011;1833;42.718;23.270;2023-03-21T08:59:23;36.53;;;32.77;;
3633;SDS011;1833;42.718;23.270;2023-03-21T09:01:56;38.03;;;34.33;;
3633;SDS011;1833;42.718;23.270;2023-03-21T09:04:24;38.23;;;34.20;;
3633;SDS011;1833;42.718;23.270;2023-03-21T09:06:53;39.90;;;34.70;;
3633;SDS011;1833;42.718;23.270;2023-03-21T09:09:20;37.47;;;33.73;;
3633;SDS011;1833;42.718;23.270;2023-03-21T09:11:48;39.90;;;35.70;;
3633;SDS011;1833;42.718;23.270;2023-03-21T09:14:15;40.77;;;35.37;;
3633;SDS011;1833;42.718;23.270;2023-03-21T09:16:43;37.23;;;33.47;;
3633;SDS011;1833;42.718;23.270;2023-03-21T09:19:12;37.40;;;33.70;;
3633;SDS011;1833;42.718;23.270;2023-03-21T09:21:41;40.60;;;35.60;;
3633;SDS011;1833;42.718;23.270;2023-03-21T09:24:10;48.00;;;34.83;;
3633;SDS011;1833;42.718;23.270;2023-03-21T09:26:39;39.80;;;35.70;;
3633;SDS011;1833;42.718;23.270;2023-03-21T09:29:08;38.93;;;35.03;;
3633;SDS011;1833;42.718;23.270;2023-03-21T09:31:35;42.20;;;36.80;;
3633;SDS011;1833;42.718;23.270;2023-03-21T09:34:04;40.60;;;36.77;;
3633;SDS011;1833;42.718;23.270;2023-03-21T09:36:31;43.77;;;37.60;;
3633;SDS011;1833;42.718;23.270;2023-03-21T09:39:00;44.47;;;35.23;;
3633;SDS011;1833;42.718;23.270;2023-03-21T09:41:38;41.00;;;35.20;;
3633;SDS011;1833;42.718;23.270;2023-03-21T09:44:10;38.90;;;34.73;;
3633;SDS011;1833;42.718;23.270;2023-03-21T09:46:41;41.13;;;36.17;;
3633;SDS011;1833;42.718;23.270;2023-03-21T09:49:10;44.97;;;40.13;;
3633;SDS011;1833;42.718;23.270;2023-03-21T09:51:40;42.47;;;37.90;;
3633;SDS011;1833;42.718;23.270;2023-03-21T09:54:11;42.90;;;37.30;;
3633;SDS011;1833;42.718;23.270;2023-03-21T09:56:43;39.77;;;35.30;;
3633;SDS011;1833;42.718;23.270;2023-03-21T09:59:13;41.40;;;35.87;;
3633;SDS011;1833;42.718;23.270;2023-03-21T10:01:45;42.40;;;34.90;;
3633;SDS011;1833;42.718;23.270;2023-03-21T10:04:14;49.97;;;38.33;;
3633;SDS011;1833;42.718;23.270;2023-03-21T10:06:43;48.57;;;37.90;;
3633;SDS011;1833;42.718;23.270;2023-03-21T10:09:13;44.73;;;37.40;;
3633;SDS011;1833;42.718;23.270;2023-03-21T10:11:43;41.07;;;35.90;;
3633;SDS011;1833;42.718;23.270;2023-03-21T10:14:13;39.23;;;35.23;;
3633;SDS011;1833;42.718;23.270;2023-03-21T10:16:42;41.90;;;37.93;;
3633;SDS011;1833;42.718;23.270;2023-03-21T10:19:11;46.30;;;36.87;;
3633;SDS011;1833;42.718;23.270;2023-03-21T10:21:39;43.63;;;37.13;;
3633;SDS011;1833;42.718;23.270;2023-03-21T10:24:08;50.00;;;37.10;;
3633;SDS011;1833;42.718;23.270;2023-03-21T10:26:37;44.43;;;37.63;;
3633;SDS011;1833;42.718;23.270;2023-03-21T10:29:06;41.03;;;36.73;;
3633;SDS011;1833;42.718;23.270;2023-03-21T10:31:33;40.47;;;36.40;;
3633;SDS011;1833;42.718;23.270;2023-03-21T10:34:02;41.07;;;37.07;;
3633;SDS011;1833;42.718;23.270;2023-03-21T10:36:30;40.03;;;36.03;;
3633;SDS011;1833;42.718;23.270;2023-03-21T10:39:00;41.53;;;37.37;;
3633;SDS011;1833;42.718;23.270;2023-03-21T10:41:28;37.93;;;34.10;;
3633;SDS011;1833;42.718;23.270;2023-03-21T10:44:10;39.90;;;33.37;;
3633;SDS011;1833;42.718;23.270;2023-03-21T10:46:38;35.83;;;32.33;;
3633;SDS011;1833;42.718;23.270;2023-03-21T10:49:15;37.80;;;32.43;;
3633;SDS011;1833;42.718;23.270;2023-03-21T10:51:46;34.97;;;31.60;;
3633;SDS011;1833;42.718;23.270;2023-03-21T10:54:19;37.13;;;32.83;;
3633;SDS011;1833;42.718;23.270;2023-03-21T10:56:50;36.30;;;29.70;;
3633;SDS011;1833;42.718;23.270;2023-03-21T10:59:21;35.43;;;32.13;;
3633;SDS011;1833;42.718;23.270;2023-03-21T11:01:50;37.10;;;33.13;;
3633;SDS011;1833;42.718;23.270;2023-03-21T11:04:23;35.37;;;31.50;;
3633;SDS011;1833;42.718;23.270;2023-03-21T11:07:02;45.30;;;31.70;;
3633;SDS011;1833;42.718;23.270;2023-03-21T11:09:43;36.30;;;32.50;;
3633;SDS011;1833;42.718;23.270;2023-03-21T11:12:13;33.90;;;30.60;;
3633;SDS011;1833;42.718;23.270;2023-03-21T11:14:43;34.50;;;31.20;;
3633;SDS011;1833;42.718;23.270;2023-03-21T11:17:21;35.83;;;32.33;;
3633;SDS011;1833;42.718;23.270;2023-03-21T11:19:50;37.30;;;33.60;;
3633;SDS011;1833;42.718;23.270;2023-03-21T11:22:21;36.03;;;32.10;;
3633;SDS011;1833;42.718;23.270;2023-03-21T11:24:52;36.53;;;32.80;;
3633;SDS011;1833;42.718;23.270;2023-03-21T11:27:22;36.70;;;33.00;;
3633;SDS011;1833;42.718;23.270;2023-03-21T11:29:59;36.93;;;32.93;;
3633;SDS011;1833;42.718;23.270;2023-03-21T11:32:31;45.43;;;31.77;;
3633;SDS011;1833;42.718;23.270;2023-03-21T11:34:59;42.23;;;31.60;;
3633;SDS011;1833;42.718;23.270;2023-03-21T11:37:31;48.73;;;31.77;;
3633;SDS011;1833;42.718;23.270;2023-03-21T11:40:05;48.53;;;32.80;;
3633;SDS011;1833;42.718;23.270;2023-03-21T11:42:39;62.20;;;33.73;;
3633;SDS011;1833;42.718;23.270;2023-03-21T11:45:12;53.00;;;31.93;;
3633;SDS011;1833;42.718;23.270;2023-03-21T11:47:43;36.03;;;32.23;;
3633;SDS011;1833;42.718;23.270;2023-03-21T11:50:14;190.53;;;43.13;;
3633;SDS011;1833;42.718;23.270;2023-03-21T11:52:42;33.60;;;30.20;;
3633;SDS011;1833;42.718;23.270;2023-03-21T11:55:19;33.70;;;30.23;;
3633;SDS011;1833;42.718;23.270;2023-03-21T11:57:51;39.73;;;30.70;;
3633;SDS011;1833;42.718;23.270;2023-03-21T12:00:25;36.53;;;30.43;;
3633;SDS011;1833;42.718;23.270;2023-03-21T12:03:12;35.87;;;32.03;;
3633;SDS011;1833;42.718;23.270;2023-03-21T12:05:44;44.73;;;32.87;;
3633;SDS011;1833;42.718;23.270;2023-03-21T12:08:19;37.90;;;33.43;;
3633;SDS011;1833;42.718;23.270;2023-03-21T12:10:51;33.37;;;30.20;;
3633;SDS011;1833;42.718;23.270;2023-03-21T12:13:27;35.07;;;31.20;;
3633;SDS011;1833;42.718;23.270;2023-03-21T12:16:03;33.93;;;30.47;;
3633;SDS011;1833;42.718;23.270;2023-03-21T12:18:36;33.57;;;30.47;;
3633;SDS011;1833;42.718;23.270;2023-03-21T12:21:08;32.47;;;29.30;;
3633;SDS011;1833;42.718;23.270;2023-03-21T12:23:41;34.17;;;30.77;;
3633;SDS011;1833;42.718;23.270;2023-03-21T12:26:13;32.80;;;29.70;;
3633;SDS011;1833;42.718;23.270;2023-03-21T12:28:50;33.67;;;30.60;;
3633;SDS011;1833;42.718;23.270;2023-03-21T12:31:23;33.77;;;30.40;;
3633;SDS011;1833;42.718;23.270;2023-03-21T12:33:57;37.33;;;32.03;;
3633;SDS011;1833;42.718;23.270;2023-03-21T12:36:43;34.97;;;31.30;;
3633;SDS011;1833;42.718;23.270;2023-03-21T12:39:15;37.93;;;29.80;;
3633;SDS011;1833;42.718;23.270;2023-03-21T12:41:49;31.53;;;28.60;;
3633;SDS011;1833;42.718;23.270;2023-03-21T12:44:20;35.30;;;29.47;;
3633;SDS011;1833;42.718;23.270;2023-03-21T12:46:52;47.23;;;30.13;;
3633;SDS011;1833;42.718;23.270;2023-03-21T12:49:23;37.53;;;28.80;;
3633;SDS011;1833;42.718;23.270;2023-03-21T12:51:53;47.03;;;29.60;;
3633;SDS011;1833;42.718;23.270;2023-03-21T12:54:22;32.43;;;29.20;;
3633;SDS011;1833;42.718;23.270;2023-03-21T12:56:53;33.07;;;29.50;;
3633;SDS011;1833;42.718;23.270;2023-03-21T12:59:24;33.70;;;30.10;;
3633;SDS011;1833;42.718;23.270;2023-03-21T13:01:56;31.97;;;28.67;;
3633;SDS011;1833;42.718;23.270;2023-03-21T13:04:29;32.97;;;29.67;;
3633;SDS011;1833;42.718;23.270;2023-03-21T13:06:58;33.50;;;30.33;;
3633;SDS011;1833;42.718;23.270;2023-03-21T13:09:28;32.50;;;29.47;;
3633;SDS011;1833;42.718;23.270;2023-03-21T13:11:57;32.30;;;29.40;;
3633;SDS011;1833;42.718;23.270;2023-03-21T13:14:32;34.10;;;31.00;;
3633;SDS011;1833;42.718;23.270;2023-03-21T13:17:05;33.63;;;30.57;;
3633;SDS011;1833;42.718;23.270;2023-03-21T13:19:34;32.27;;;28.90;;
3633;SDS011;1833;42.718;23.270;2023-03-21T13:22:05;33.00;;;30.10;;
3633;SDS011;1833;42.718;23.270;2023-03-21T13:24:37;32.90;;;29.70;;
3633;SDS011;1833;42.718;23.270;2023-03-21T13:27:05;33.73;;;30.43;;
3633;SDS011;1833;42.718;23.270;2023-03-21T13:29:34;33.13;;;29.93;;
3633;SDS011;1833;42.718;23.270;2023-03-21T13:32:14;33.43;;;30.10;;
3633;SDS011;1833;42.718;23.270;2023-03-21T13:34:42;31.87;;;28.70;;
3633;SDS011;1833;42.718;23.270;2023-03-21T13:37:14;34.10;;;30.90;;
3633;SDS011;1833;42.718;23.270;2023-03-21T13:39:44;32.30;;;29.20;;
3633;SDS011;1833;42.718;23.270;2023-03-21T13:42:16;33.73;;;30.10;;
3633;SDS011;1833;42.718;23.270;2023-03-21T13:44:46;34.67;;;31.00;;
3633;SDS011;1833;42.718;23.270;2023-03-21T13:56:06;31.57;;;28.60;;
3633;SDS011;1833;42.718;23.270;2023-03-21T13:58:35;32.70;;;29.67;;
3633;SDS011;1833;42.718;23.270;2023-03-21T14:01:07;31.90;;;28.00;;
3633;SDS011;1833;42.718;23.270;2023-03-21T14:03:36;32.03;;;28.93;;
3633;SDS011;1833;42.718;23.270;2023-03-21T14:06:04;33.10;;;29.90;;
3633;SDS011;1833;42.718;23.270;2023-03-21T14:08:33;31.70;;;28.80;;
3633;SDS011;1833;42.718;23.270;2023-03-21T14:11:03;34.63;;;29.83;;
3633;SDS011;1833;42.718;23.270;2023-03-21T14:13:31;33.67;;;30.57;;
3633;SDS011;1833;42.718;23.270;2023-03-21T14:15:59;34.27;;;30.63;;
3633;SDS011;1833;42.718;23.270;2023-03-21T14:18:27;33.47;;;30.20;;
3633;SDS011;1833;42.718;23.270;2023-03-21T14:20:55;43.83;;;29.60;;
3633;SDS011;1833;42.718;23.270;2023-03-21T14:23:24;34.30;;;31.00;;
3633;SDS011;1833;42.718;23.270;2023-03-21T14:25:51;32.33;;;29.33;;
3633;SDS011;1833;42.718;23.270;2023-03-21T14:28:20;33.47;;;30.17;;
3633;SDS011;1833;42.718;23.270;2023-03-21T14:30:49;33.97;;;30.93;;
3633;SDS011;1833;42.718;23.270;2023-03-21T14:33:18;33.93;;;30.60;;
3633;SDS011;1833;42.718;23.270;2023-03-21T14:35:47;32.33;;;29.27;;
3633;SDS011;1833;42.718;23.270;2023-03-21T14:38:19;32.47;;;29.40;;
3633;SDS011;1833;42.718;23.270;2023-03-21T14:40:48;34.97;;;31.67;;
3633;SDS011;1833;42.718;23.270;2023-03-21T14:43:17;34.53;;;30.90;;
3633;SDS011;1833;42.718;23.270;2023-03-21T14:45:47;32.73;;;29.43;;
3633;SDS011;1833;42.718;23.270;2023-03-21T14:48:17;33.10;;;29.80;;
3633;SDS011;1833;42.718;23.270;2023-03-21T14:50:45;34.07;;;30.60;;
3633;SDS011;1833;42.718;23.270;2023-03-21T14:53:14;35.60;;;32.03;;
3633;SDS011;1833;42.718;23.270;2023-03-21T14:55:43;34.37;;;30.83;;
3633;SDS011;1833;42.718;23.270;2023-03-21T14:58:12;34.87;;;31.00;;